Time;durP1;ratioP1;P1;durP2;ratioP2;P2;SDS_P1;SDS_P2;PMS_P1;PMS_P2;Temp;Humidity;BMP_temperature;BMP_pressure;BME280_temperature;BME280_humidity;BME280_pressure;Samples;Min_cycle;Max_cycle;Signal;HPM_P1;HPM_P2
2022/02/03 00:02:04;;;;;;;36.08;17.73;;;;;;;3.25;57.91;99921.13;5050935;28;20041;-79
2022/02/03 00:04:39;;;;;;;31.80;14.90;;;;;;;3.27;57.98;99927.09;5051907;28;20060;-78
2022/02/03 00:07:12;;;;;;;24.70;13.32;;;;;;;3.27;57.96;99923.66;5050320;28;20049;-81
2022/02/03 00:26:31;;;;;;;27.55;12.98;;;;;;;3.28;57.72;99943.59;4987128;28;20181;-77
2022/02/03 00:29:00;;;;;;;36.70;14.65;;;;;;;3.32;57.80;99945.16;4986840;28;20074;-76
2022/02/03 00:31:40;;;;;;;29.58;12.48;;;;;;;3.32;57.77;99946.00;4988742;28;20081;-77
2022/02/03 00:34:15;;;;;;;28.23;12.38;;;;;;;3.36;57.71;99952.75;4987351;28;20046;-76
2022/02/03 00:37:10;;;;;;;29.20;14.00;;;;;;;3.40;57.65;99961.31;4987360;28;20388;-80
2022/02/03 00:50:44;;;;;;;12.80;7.05;;;;;;;3.34;57.88;100000.75;4967211;28;20115;-77
2022/02/03 00:53:15;;;;;;;14.02;7.88;;;;;;;3.32;57.81;100011.28;4981552;28;20536;-72
2022/02/03 00:55:45;;;;;;;17.67;7.18;;;;;;;3.35;57.99;100002.44;5026663;28;20041;-78
2022/02/03 00:58:15;;;;;;;11.40;6.00;;;;;;;3.41;57.79;100010.00;5024964;28;20049;-80
2022/02/03 01:00:46;;;;;;;12.20;7.22;;;;;;;3.44;57.99;100015.94;5009727;28;20137;-78
2022/02/03 01:03:14;;;;;;;15.30;8.02;;;;;;;3.44;57.80;100018.53;5026633;28;20753;-78
2022/02/03 01:05:43;;;;;;;13.85;7.15;;;;;;;3.44;57.71;100028.13;5025948;28;20128;-79
2022/02/03 01:08:19;;;;;;;10.90;5.28;;;;;;;3.45;57.83;100025.44;5024672;28;20049;-76
2022/02/03 01:11:03;;;;;;;10.55;5.93;;;;;;;3.48;57.73;100029.69;5026010;28;20045;-73
2022/02/03 01:13:39;;;;;;;13.68;6.82;;;;;;;3.52;57.66;100036.44;5010305;28;20057;-79
2022/02/03 01:16:15;;;;;;;12.85;7.20;;;;;;;3.51;57.89;100032.16;5009604;28;20061;-73
2022/02/03 01:19:19;;;;;;;15.98;8.75;;;;;;;3.50;58.14;100033.06;5024156;28;20045;-77
2022/02/03 01:43:54;;;;;;;27.38;11.07;;;;;;;3.34;58.81;100032.09;4966143;28;20053;-75
2022/02/03 01:46:38;;;;;;;24.77;12.95;;;;;;;3.39;58.89;100037.94;4965705;28;20054;-75
2022/02/03 01:49:13;;;;;;;28.67;12.70;;;;;;;3.41;58.88;100038.72;4965090;28;20466;-77
2022/02/03 01:51:54;;;;;;;41.33;18.33;;;;;;;3.45;58.85;100037.66;4965169;28;20228;-76
2022/02/03 01:54:28;;;;;;;13.80;8.05;;;;;;;3.44;59.01;100042.03;4965263;28;20105;-77
2022/02/03 01:57:07;;;;;;;19.98;10.15;;;;;;;3.42;59.07;100037.78;4964892;28;20107;-76
2022/02/03 01:59:36;;;;;;;19.35;9.55;;;;;;;3.43;59.06;100042.94;4966220;28;20737;-74
2022/02/03 02:02:06;;;;;;;19.90;11.63;;;;;;;3.44;59.11;100056.84;5015612;28;20055;-79
2022/02/03 02:04:58;;;;;;;15.95;9.38;;;;;;;3.44;59.60;100055.09;5048065;28;20112;-80
2022/02/03 02:07:35;;;;;;;22.55;12.80;;;;;;;3.39;59.60;100062.28;5041392;28;20262;-77
2022/02/03 02:13:12;;;;;;;16.95;10.95;;;;;;;3.43;59.86;100081.25;5047151;28;20480;-76
2022/02/03 02:16:01;;;;;;;28.75;15.07;;;;;;;3.41;60.08;100091.78;5046150;28;20444;-76
2022/02/03 02:18:55;;;;;;;33.80;19.90;;;;;;;3.34;60.39;100095.56;5047475;28;20151;-78
2022/02/03 02:38:27;;;;;;;31.88;22.50;;;;;;;3.19;62.34;100101.50;5067672;28;20111;-77
2022/02/03 02:43:51;;;;;;;33.00;22.38;;;;;;;3.10;63.13;100107.97;4999642;28;20105;-76
2022/02/03 02:46:23;;;;;;;28.95;22.23;;;;;;;3.09;63.26;100110.63;5001026;28;20047;-78
2022/02/03 02:49:15;;;;;;;41.97;27.70;;;;;;;3.07;63.70;100123.75;4996767;28;20110;-80
2022/02/03 02:51:52;;;;;;;39.92;24.63;;;;;;;3.08;63.55;100121.97;4985425;28;20046;-78
2022/02/03 02:54:45;;;;;;;29.08;20.27;;;;;;;3.04;63.83;100123.88;4989947;28;20050;-77
2022/02/03 03:00:34;;;;;;;27.25;17.80;;;;;;;3.00;63.98;100127.53;4972403;28;20063;-77
2022/02/03 03:03:28;;;;;;;22.00;16.35;;;;;;;2.93;64.01;100131.31;4990646;28;20050;-76
2022/02/03 03:31:16;;;;;;;18.20;11.68;;;;;;;3.19;62.96;100172.81;5052813;28;20056;-76
2022/02/03 03:33:55;;;;;;;15.90;11.07;;;;;;;3.14;62.99;100187.81;5050823;28;20076;-75
2022/02/03 03:36:22;;;;;;;16.98;11.88;;;;;;;3.06;63.13;100184.66;5051433;28;20053;-80
2022/02/03 03:38:54;;;;;;;25.17;15.75;;;;;;;3.04;63.13;100189.09;5050276;28;20049;-80
2022/02/03 03:41:22;;;;;;;18.52;11.38;;;;;;;3.08;63.13;100187.22;5050317;28;20049;-78
2022/02/03 03:44:02;;;;;;;27.25;13.07;;;;;;;3.15;63.06;100186.03;5051542;28;20414;-79
2022/02/03 03:46:33;;;;;;;22.13;11.18;;;;;;;3.21;62.80;100191.84;5050474;28;20051;-79
2022/02/03 03:49:06;;;;;;;34.45;13.30;;;;;;;3.31;62.48;100191.44;5050119;28;20051;-80
2022/02/03 03:51:43;;;;;;;19.23;12.40;;;;;;;3.23;62.86;100190.03;5050505;28;20049;-74
2022/02/03 03:54:17;;;;;;;30.08;16.15;;;;;;;3.19;62.92;100193.69;5050343;28;20045;-75
2022/02/03 03:56:57;;;;;;;24.60;15.40;;;;;;;3.13;63.23;100193.94;5049850;28;20111;-75
2022/02/03 04:29:21;;;;;;;27.50;17.00;;;;;;;3.14;64.18;100203.47;4949389;28;20287;-77
2022/02/03 04:40:51;;;;;;;28.08;17.63;;;;;;;3.22;64.20;100209.22;4915337;29;20059;-77
2022/02/03 04:55:51;;;;;;;27.17;18.75;;;;;;;3.20;64.23;100213.63;4966234;29;20036;-74
2022/02/03 05:04:40;;;;;;;21.75;14.30;;;;;;;3.29;64.18;100212.41;4952855;29;20062;-77
2022/02/03 05:07:52;;;;;;;23.73;15.18;;;;;;;3.29;63.92;100214.16;4949385;29;20134;-76
2022/02/03 05:10:56;;;;;;;20.40;14.07;;;;;;;3.24;63.90;100207.38;4948723;29;20130;-79
2022/02/03 05:13:47;;;;;;;18.90;14.75;;;;;;;3.24;63.95;100203.91;4948716;28;20051;-78
2022/02/03 05:17:01;;;;;;;23.30;14.27;;;;;;;3.23;63.70;100202.22;4989870;28;20041;-74
2022/02/03 05:26:24;;;;;;;21.65;14.52;;;;;;;3.11;63.44;100210.56;4949797;28;20073;-70
2022/02/03 05:32:12;;;;;;;19.27;15.05;;;;;;;3.13;63.25;100225.25;4943303;29;20204;-74
2022/02/03 05:44:00;;;;;;;19.40;14.57;;;;;;;3.06;62.55;100234.25;4893499;29;20153;-80
2022/02/03 06:06:25;;;;;;;16.58;9.88;;;;;;;3.24;61.69;100277.88;5058357;28;20048;-77
2022/02/03 06:09:04;;;;;;;19.92;12.18;;;;;;;3.19;61.73;100277.19;5075450;28;20041;-74
2022/02/03 06:14:21;;;;;;;17.20;12.23;;;;;;;3.18;61.63;100285.09;5068810;28;20272;-78
2022/02/03 06:17:03;;;;;;;17.17;12.48;;;;;;;3.13;61.63;100274.00;5053357;28;20044;-77
2022/02/03 06:22:26;;;;;;;15.85;11.55;;;;;;;3.18;61.48;100285.94;5065863;28;20547;-76
2022/02/03 06:27:40;;;;;;;14.43;11.10;;;;;;;3.18;61.26;100288.53;5085077;28;20063;-74
2022/02/03 06:30:09;;;;;;;17.13;10.63;;;;;;;3.05;61.40;100295.19;5081263;28;20123;-73
2022/02/03 06:32:38;;;;;;;14.45;7.82;;;;;;;3.14;61.20;100297.41;5081321;28;20108;-72
2022/02/03 06:35:07;;;;;;;13.32;8.23;;;;;;;3.13;61.12;100290.50;5082567;28;20082;-74
2022/02/03 06:37:34;;;;;;;12.70;8.00;;;;;;;3.19;60.96;100295.47;5097602;28;20438;-76
2022/02/03 06:40:04;;;;;;;12.57;8.07;;;;;;;3.11;60.98;100302.75;5125595;27;20058;-72
2022/02/03 06:42:31;;;;;;;13.52;9.82;;;;;;;3.05;60.92;100295.19;5125822;27;20048;-70
2022/02/03 06:45:06;;;;;;;13.88;7.60;;;;;;;2.93;61.20;100304.34;5122224;27;20636;-72
2022/02/03 06:47:37;;;;;;;13.32;8.85;;;;;;;2.92;61.32;100301.78;5121727;27;20043;-75
2022/02/03 06:50:16;;;;;;;16.60;10.10;;;;;;;2.91;61.11;100305.34;5120136;27;20600;-77
2022/02/03 06:52:51;;;;;;;16.73;10.25;;;;;;;3.00;60.98;100310.19;5118957;28;20134;-75
2022/02/03 06:55:25;;;;;;;14.02;8.27;;;;;;;3.12;60.60;100316.69;5116158;27;20049;-73
2022/02/03 06:57:57;;;;;;;11.68;7.45;;;;;;;3.12;60.36;100319.28;5117941;27;20629;-71
2022/02/03 07:00:29;;;;;;;10.25;8.13;;;;;;;3.11;60.29;100321.03;5117157;27;20051;-75
2022/02/03 07:02:58;;;;;;;11.30;6.80;;;;;;;3.21;60.08;100322.34;5107022;27;20134;-72
2022/02/03 07:05:25;;;;;;;12.02;6.68;;;;;;;3.22;59.74;100317.97;5103904;28;20172;-70
2022/02/03 07:07:52;;;;;;;12.80;7.68;;;;;;;3.21;59.20;100324.97;5103576;28;20047;-72
2022/02/03 07:10:22;;;;;;;9.77;5.55;;;;;;;3.28;58.83;100299.47;5100738;28;20756;-72
2022/02/03 07:12:49;;;;;;;24.10;9.55;;;;;;;3.19;58.53;100294.63;5101053;28;20621;-73
2022/02/03 07:15:16;;;;;;;12.23;7.55;;;;;;;3.06;58.06;100307.31;5102502;28;20464;-75
2022/02/03 07:17:43;;;;;;;19.65;10.43;;;;;;;3.11;57.49;100301.91;5103330;28;20047;-71
2022/02/03 07:20:13;;;;;;;12.52;6.60;;;;;;;3.04;57.25;100322.19;5103353;28;20690;-76
2022/02/03 07:22:42;;;;;;;16.20;9.73;;;;;;;2.95;57.21;100312.97;5102145;28;20135;-71
2022/02/03 07:25:10;;;;;;;9.75;5.60;;;;;;;2.89;57.10;100312.38;5103615;28;20051;-78
2022/02/03 07:27:38;;;;;;;7.47;5.00;;;;;;;2.90;56.83;100325.38;5101925;28;20090;-71
2022/02/03 07:30:06;;;;;;;6.18;3.83;;;;;;;2.96;56.83;100330.31;5101940;28;20119;-71
2022/02/03 07:32:33;;;;;;;6.72;4.47;;;;;;;2.96;56.82;100332.09;5064839;28;20047;-72
2022/02/03 07:35:01;;;;;;;7.38;4.57;;;;;;;3.01;56.78;100325.78;5104577;28;20094;-74
2022/02/03 07:37:28;;;;;;;8.75;5.65;;;;;;;3.20;56.66;100323.25;5105206;28;20464;-72
2022/02/03 07:39:57;;;;;;;8.88;6.22;;;;;;;3.42;56.00;100328.47;5101619;28;20052;-72
2022/02/03 07:42:24;;;;;;;13.73;7.03;;;;;;;3.65;55.55;100326.63;5102285;28;20044;-75
2022/02/03 07:44:53;;;;;;;14.90;7.32;;;;;;;3.90;55.44;100334.25;5103046;28;20056;-71
2022/02/03 07:47:20;;;;;;;8.57;6.63;;;;;;;3.81;54.71;100332.88;5099634;28;20052;-74
2022/02/03 07:49:46;;;;;;;10.90;4.90;;;;;;;3.96;54.86;100335.75;5101988;28;20635;-73
2022/02/03 07:52:14;;;;;;;9.48;6.43;;;;;;;3.90;53.60;100328.19;5101694;28;20529;-74
2022/02/03 07:54:42;;;;;;;9.88;6.25;;;;;;;3.91;53.96;100330.75;5101353;28;20823;-72
2022/02/03 07:57:10;;;;;;;7.95;4.88;;;;;;;3.97;53.80;100335.69;5102880;28;20074;-74
2022/02/03 07:59:37;;;;;;;10.57;6.78;;;;;;;3.90;53.03;100334.25;5103235;28;20086;-75
2022/02/03 08:02:06;;;;;;;8.50;6.57;;;;;;;3.81;52.59;100337.28;5103950;28;20590;-75
2022/02/03 08:04:35;;;;;;;8.90;4.65;;;;;;;3.85;52.78;100341.44;5102163;28;20086;-71
2022/02/03 08:07:02;;;;;;;13.75;7.47;;;;;;;3.92;52.69;100342.88;5102323;28;20073;-73
2022/02/03 08:09:38;;;;;;;8.90;5.88;;;;;;;3.96;52.78;100343.59;5104891;28;20683;-71
2022/02/03 08:12:10;;;;;;;7.57;3.40;;;;;;;4.09;52.37;100336.06;5105299;28;20083;-75
2022/02/03 08:14:41;;;;;;;8.38;4.18;;;;;;;4.22;52.41;100330.22;5110085;28;20051;-75
2022/02/03 08:17:15;;;;;;;9.15;5.15;;;;;;;4.37;52.42;100330.44;5105921;28;20049;-76
2022/02/03 08:19:48;;;;;;;11.02;5.05;;;;;;;4.50;52.27;100333.34;5106582;28;20075;-72
2022/02/03 08:22:20;;;;;;;13.48;6.05;;;;;;;4.72;52.29;100341.91;5103722;28;20047;-74
2022/02/03 08:24:50;;;;;;;11.65;7.28;;;;;;;4.79;51.59;100332.00;5106245;28;20047;-72
2022/02/03 08:30:22;;;;;;;8.85;4.07;;;;;;;4.82;51.38;100337.06;5019279;28;20049;-73
2022/02/03 08:32:55;;;;;;;7.38;3.47;;;;;;;4.99;51.68;100333.69;5021440;28;20053;-72
2022/02/03 08:35:34;;;;;;;13.82;6.57;;;;;;;5.14;51.58;100332.06;5022819;28;20056;-74
2022/02/03 08:38:12;;;;;;;14.10;6.07;;;;;;;5.28;51.64;100326.19;5020998;28;20611;-75
2022/02/03 08:40:58;;;;;;;8.95;4.47;;;;;;;5.36;51.58;100322.22;5018469;28;20110;-72
2022/02/03 08:43:30;;;;;;;9.43;5.80;;;;;;;5.32;51.31;100319.84;5001751;28;20116;-74
2022/02/03 08:45:58;;;;;;;9.52;4.80;;;;;;;5.39;51.52;100328.25;5018603;28;20096;-73
2022/02/03 08:48:27;;;;;;;6.35;3.58;;;;;;;5.57;51.48;100326.50;5021414;28;20203;-76
2022/02/03 08:50:54;;;;;;;11.32;7.82;;;;;;;5.38;50.25;100322.16;5020951;28;20042;-78
2022/02/03 08:53:26;;;;;;;15.07;8.10;;;;;;;5.14;50.51;100325.06;5018927;28;20091;-75
2022/02/03 08:56:04;;;;;;;15.38;7.32;;;;;;;5.21;50.92;100324.78;5018145;28;20156;-74
2022/02/03 08:59:02;;;;;;;11.32;6.05;;;;;;;5.30;50.98;100330.41;5019385;28;20766;-77
2022/02/03 09:34:52;;;;;;;15.50;7.15;;;;;;;6.32;50.91;100304.25;5040417;28;20648;-74
2022/02/03 09:37:38;;;;;;;15.20;8.63;;;;;;;6.32;50.92;100301.63;5041045;28;20052;-78
2022/02/03 09:51:46;;;;;;;21.48;8.68;;;;;;;6.20;51.02;100291.78;4963028;28;20121;-74
2022/02/03 09:59:58;;;;;;;17.50;11.77;;;;;;;6.52;51.00;100284.78;4963527;28;20113;-73
2022/02/03 10:02:28;;;;;;;18.42;9.43;;;;;;;6.61;50.94;100279.03;4964926;28;20141;-74
2022/02/03 10:04:58;;;;;;;14.10;8.15;;;;;;;6.62;50.83;100278.09;4975853;28;20144;-75
2022/02/03 10:07:30;;;;;;;11.23;7.07;;;;;;;6.58;50.91;100268.69;4977603;28;20057;-73
2022/02/03 10:10:07;;;;;;;11.90;8.10;;;;;;;6.66;51.00;100276.13;4975827;28;20113;-74
2022/02/03 10:12:36;;;;;;;12.93;7.28;;;;;;;6.77;50.79;100267.66;5023633;28;20044;-72
2022/02/03 10:15:05;;;;;;;14.13;7.75;;;;;;;6.69;51.01;100262.84;5035977;28;20054;-74
2022/02/03 10:17:33;;;;;;;16.10;8.40;;;;;;;6.73;51.12;100268.78;5033965;28;20143;-74
2022/02/03 10:20:02;;;;;;;16.92;9.63;;;;;;;6.77;50.73;100263.28;5081637;28;20123;-76
2022/02/03 10:22:29;;;;;;;20.02;9.80;;;;;;;6.84;51.04;100263.75;5120883;28;20040;-72
2022/02/03 10:25:09;;;;;;;19.63;12.10;;;;;;;6.91;50.99;100259.00;5115761;28;20044;-73
2022/02/03 10:27:39;;;;;;;19.70;11.88;;;;;;;6.98;50.79;100257.72;5105063;28;20063;-73
2022/02/03 10:30:13;;;;;;;17.25;9.25;;;;;;;7.01;50.70;100261.03;5102465;28;20079;-75
2022/02/03 10:32:43;;;;;;;18.00;8.70;;;;;;;7.01;50.88;100260.19;5102475;28;20043;-72
2022/02/03 10:35:28;;;;;;;22.25;13.23;;;;;;;6.95;50.77;100258.75;5100969;28;20308;-72
2022/02/03 10:47:07;;;;;;;30.88;14.95;;;;;;;7.11;50.73;100247.34;5100108;28;20403;-71
2022/02/03 10:58:21;;;;;;;40.00;16.90;;;;;;;7.22;50.99;100242.31;5058851;28;20053;-78
2022/02/03 11:03:51;;;;;;;28.02;14.50;;;;;;;6.90;51.61;100231.91;5061344;28;20597;-77
2022/02/03 11:06:27;;;;;;;22.40;11.27;;;;;;;6.82;51.83;100224.47;5062067;28;20407;-73
2022/02/03 11:09:04;;;;;;;27.13;14.88;;;;;;;6.80;51.92;100222.88;5057883;28;20072;-72
2022/02/03 11:11:38;;;;;;;32.38;18.40;;;;;;;6.73;52.06;100224.16;5060507;28;20052;-71
2022/02/03 11:14:07;;;;;;;25.10;14.05;;;;;;;6.74;52.36;100226.69;5060557;28;20056;-76
2022/02/03 11:16:39;;;;;;;27.90;15.50;;;;;;;6.76;52.35;100232.69;5061056;28;20116;-76
2022/02/03 11:19:10;;;;;;;33.45;19.15;;;;;;;6.79;52.38;100234.28;5057902;28;20702;-71
2022/02/03 11:21:37;;;;;;;31.42;19.52;;;;;;;6.75;52.74;100228.38;5056780;28;20485;-75
2022/02/03 11:24:09;;;;;;;31.58;17.00;;;;;;;6.72;52.83;100227.69;5063178;28;20653;-75
2022/02/03 11:26:47;;;;;;;33.20;18.20;;;;;;;6.65;53.12;100219.34;5059064;28;20431;-71
2022/02/03 11:30:01;;;;;;;26.52;15.48;;;;;;;6.63;53.45;100221.22;5058934;28;20135;-75
2022/02/03 11:41:13;;;;;;;27.30;14.98;;;;;;;6.72;53.49;100212.81;5059384;28;20048;-79
2022/02/03 11:44:15;;;;;;;36.15;16.42;;;;;;;6.67;53.73;100199.94;5059084;28;20504;-75
2022/02/03 11:56:01;;;;;;;26.38;14.73;;;;;;;6.50;54.42;100202.69;4996960;28;20085;-76
2022/02/03 11:59:01;;;;;;;29.10;15.00;;;;;;;6.47;54.31;100195.00;4997299;28;20579;-79
2022/02/03 12:01:43;;;;;;;25.83;14.57;;;;;;;6.54;54.46;100191.09;4997516;28;20127;-76
2022/02/03 12:04:34;;;;;;;28.60;13.70;;;;;;;6.59;54.33;100198.69;4998417;28;20053;-77
2022/02/03 12:12:57;;;;;;;33.45;17.67;;;;;;;6.66;54.45;100193.03;4998551;28;20777;-73
2022/02/03 12:15:45;;;;;;;30.25;15.75;;;;;;;6.61;54.53;100195.06;4999308;28;20046;-76
2022/02/03 12:18:21;;;;;;;29.02;17.40;;;;;;;6.66;54.38;100181.66;5001082;28;20136;-73
2022/02/03 12:20:57;;;;;;;31.42;17.10;;;;;;;6.77;54.58;100179.28;5000659;28;20081;-74
2022/02/03 12:23:53;;;;;;;29.15;16.77;;;;;;;6.86;54.55;100172.63;4999132;28;20061;-75
2022/02/03 12:26:29;;;;;;;26.80;16.48;;;;;;;7.01;54.06;100169.09;5008493;28;20136;-76
2022/02/03 12:29:02;;;;;;;31.15;16.05;;;;;;;7.03;54.03;100164.59;5062526;28;20086;-75
2022/02/03 12:39:54;;;;;;;28.50;14.68;;;;;;;6.94;54.32;100165.16;5080655;28;20044;-75
2022/02/03 12:42:34;;;;;;;21.00;14.18;;;;;;;6.96;54.24;100160.66;5080938;28;20064;-77
2022/02/03 12:45:14;;;;;;;22.98;13.23;;;;;;;6.92;54.45;100161.78;5081263;28;20043;-75
2022/02/03 12:47:43;;;;;;;21.98;14.30;;;;;;;6.99;54.35;100159.66;5083492;28;20044;-75
2022/02/03 12:50:15;;;;;;;20.02;13.48;;;;;;;6.98;54.44;100150.91;5082517;28;20488;-75
2022/02/03 12:52:45;;;;;;;25.77;13.65;;;;;;;7.05;54.26;100154.84;5082679;28;20150;-74
2022/02/03 12:55:37;;;;;;;30.13;13.98;;;;;;;7.11;54.10;100152.81;5080872;28;20076;-73
2022/02/03 12:58:11;;;;;;;20.90;12.48;;;;;;;7.07;54.13;100147.72;5081517;28;20492;-76
2022/02/03 13:00:44;;;;;;;22.38;12.82;;;;;;;7.06;54.19;100143.44;5080815;28;20055;-77
2022/02/03 13:03:15;;;;;;;28.63;13.65;;;;;;;7.04;54.26;100149.69;5082478;28;20128;-74
2022/02/03 13:05:52;;;;;;;22.45;13.75;;;;;;;7.02;54.30;100144.56;5083186;28;20123;-75
2022/02/03 13:08:22;;;;;;;23.77;12.60;;;;;;;6.95;54.40;100156.34;5080394;28;20127;-75
2022/02/03 13:10:53;;;;;;;25.70;13.70;;;;;;;6.93;54.50;100149.47;5083631;28;20075;-74
2022/02/03 13:13:33;;;;;;;21.90;14.05;;;;;;;6.83;54.65;100149.19;5081553;28;20071;-73
2022/02/03 13:16:24;;;;;;;27.48;13.63;;;;;;;6.87;54.71;100155.94;5081929;28;20044;-78
2022/02/03 13:19:08;;;;;;;21.75;12.43;;;;;;;6.81;54.80;100151.06;5016173;28;20040;-75
2022/02/03 13:21:50;;;;;;;26.58;13.35;;;;;;;6.72;54.83;100152.44;5082979;28;20087;-75
2022/02/03 13:24:41;;;;;;;25.52;14.40;;;;;;;6.75;54.96;100149.63;5083354;28;20040;-76
2022/02/03 13:27:18;;;;;;;22.83;15.43;;;;;;;6.77;54.86;100144.28;5090568;28;20052;-76
2022/02/03 13:32:33;;;;;;;22.65;13.98;;;;;;;6.67;54.93;100136.13;5089260;28;20709;-76
2022/02/03 13:35:02;;;;;;;22.90;14.20;;;;;;;6.58;55.17;100139.28;5093286;28;20755;-76
2022/02/03 13:37:35;;;;;;;24.13;14.18;;;;;;;6.52;55.30;100137.84;5089448;28;20048;-75
2022/02/03 13:40:07;;;;;;;20.63;11.93;;;;;;;6.47;55.39;100137.28;5089485;28;20070;-76
2022/02/03 13:42:34;;;;;;;24.33;12.90;;;;;;;6.45;55.40;100136.50;5093255;28;20051;-75
2022/02/03 13:45:06;;;;;;;23.85;14.60;;;;;;;6.45;55.62;100139.13;5090795;28;20055;-76
2022/02/03 13:47:35;;;;;;;27.17;13.05;;;;;;;6.40;55.66;100143.81;5097053;28;20299;-76
2022/02/03 13:50:09;;;;;;;25.00;12.88;;;;;;;6.38;55.67;100138.63;5092150;28;20059;-76
2022/02/03 13:52:44;;;;;;;25.15;14.35;;;;;;;6.40;55.57;100133.31;5110348;28;20046;-76
2022/02/03 14:15:05;;;;;;;;;;;;;;;6.60;55.30;100133.00;5047479;28;20055;-71
2022/02/03 14:20:39;;;;;;;26.00;12.55;;;;;;;6.28;55.86;100135.69;5043723;28;20056;-74
2022/02/03 14:28:42;;;;;;;32.55;16.50;;;;;;;6.05;56.59;100133.50;5051568;28;20056;-76
2022/02/03 14:31:09;;;;;;;32.10;15.93;;;;;;;6.03;56.68;100135.34;5046609;28;20051;-71
2022/02/03 14:33:39;;;;;;;41.60;21.40;;;;;;;6.06;56.69;100128.16;5043874;28;20053;-72
2022/02/03 14:36:09;;;;;;;39.00;21.05;;;;;;;6.08;56.71;100135.97;5044060;28;20441;-74
2022/02/03 14:38:43;;;;;;;54.22;25.10;;;;;;;6.11;56.63;100139.25;5044139;28;20118;-71
2022/02/03 14:41:17;;;;;;;75.95;36.92;;;;;;;6.11;56.65;100133.16;5048263;28;20102;-74
2022/02/03 14:43:46;;;;;;;45.53;23.50;;;;;;;6.16;56.71;100130.28;5059048;28;20052;-71
2022/02/03 14:46:15;;;;;;;41.90;21.48;;;;;;;6.16;56.84;100127.66;5077168;28;20133;-71
2022/02/03 14:48:44;;;;;;;37.03;20.88;;;;;;;6.17;56.78;100131.97;5070890;28;20047;-73
2022/02/03 14:51:14;;;;;;;48.03;22.48;;;;;;;6.13;56.91;100123.44;5071577;28;20100;-73
2022/02/03 14:53:53;;;;;;;36.55;19.70;;;;;;;6.10;57.01;100121.84;5121053;28;20047;-75
2022/02/03 14:59:08;;;;;;;33.72;18.13;;;;;;;6.04;57.19;100122.16;5108339;28;20158;-72
2022/02/03 15:01:35;;;;;;;39.15;18.77;;;;;;;6.01;57.29;100121.50;5109958;28;20071;-74
2022/02/03 15:04:05;;;;;;;28.95;16.80;;;;;;;5.99;57.35;100121.56;5110620;28;20078;-72
2022/02/03 15:06:38;;;;;;;41.03;18.80;;;;;;;5.98;57.46;100119.91;5109542;28;20040;-73
2022/02/03 15:09:19;;;;;;;29.38;16.60;;;;;;;5.93;57.50;100117.50;5105472;27;20096;-73
2022/02/03 15:12:00;;;;;;;30.95;14.88;;;;;;;5.86;57.61;100102.19;5104385;28;20501;-72
2022/02/03 15:14:28;;;;;;;29.48;14.95;;;;;;;5.82;57.81;100101.53;5104981;28;20051;-73
2022/02/03 15:16:55;;;;;;;37.72;16.00;;;;;;;5.81;57.89;100099.81;5107811;28;20044;-73
2022/02/03 15:19:22;;;;;;;30.45;15.75;;;;;;;5.78;57.88;100099.13;5102851;28;20044;-74
2022/02/03 15:21:49;;;;;;;28.88;15.68;;;;;;;5.80;57.93;100108.63;5101834;28;20127;-76
2022/02/03 15:24:17;;;;;;;28.92;14.10;;;;;;;5.81;57.88;100106.84;5109322;28;20547;-77
2022/02/03 15:26:44;;;;;;;33.00;15.38;;;;;;;5.81;57.94;100106.84;5113029;28;20084;-76
2022/02/03 15:29:13;;;;;;;29.13;13.73;;;;;;;5.78;57.98;100107.00;5108340;28;20104;-78
2022/02/03 15:31:42;;;;;;;32.22;14.20;;;;;;;5.79;58.03;100106.91;5107695;28;20062;-77
2022/02/03 15:34:18;;;;;;;25.67;14.38;;;;;;;5.77;58.19;100106.16;5104604;28;20105;-76
2022/02/03 15:36:51;;;;;;;27.60;13.75;;;;;;;5.78;58.04;100094.75;5102084;28;20143;-77
2022/02/03 15:39:23;;;;;;;28.17;12.98;;;;;;;5.80;58.10;100094.66;5101018;28;20043;-73
2022/02/03 15:41:52;;;;;;;23.65;12.20;;;;;;;5.78;58.15;100086.03;5106286;28;20123;-77
2022/02/03 15:44:21;;;;;;;25.73;14.43;;;;;;;5.79;58.12;100095.59;5107026;28;20356;-75
2022/02/03 15:47:00;;;;;;;27.00;14.27;;;;;;;5.80;58.18;100090.28;5097891;28;20057;-74
2022/02/03 15:49:56;;;;;;;26.58;13.13;;;;;;;5.81;58.26;100093.75;5106550;28;20118;-75
2022/02/03 16:01:13;;;;;;;28.87;14.93;;;;;;;5.89;58.00;100079.28;5103601;28;20102;-78
2022/02/03 16:04:00;;;;;;;28.30;14.13;;;;;;;5.90;57.98;100080.94;5102734;28;20055;-76
2022/02/03 16:17:44;;;;;;;26.67;14.43;;;;;;;5.91;57.88;100069.56;5105171;28;20058;-75
2022/02/03 16:20:19;;;;;;;27.60;13.93;;;;;;;5.93;58.08;100064.22;5111163;27;20149;-76
2022/02/03 16:22:52;;;;;;;28.52;14.38;;;;;;;5.96;58.07;100052.75;5106730;28;20568;-79
2022/02/03 16:25:47;;;;;;;25.80;14.57;;;;;;;5.96;58.05;100061.47;5108031;27;20044;-74
2022/02/03 16:50:27;;;;;;;27.13;14.20;;;;;;;5.96;58.15;100039.63;5044890;28;20143;-81
2022/02/03 16:52:58;;;;;;;28.63;14.40;;;;;;;5.97;58.10;100031.69;5046041;28;20145;-77
2022/02/03 16:55:31;;;;;;;31.45;16.15;;;;;;;5.94;58.01;100032.69;5041418;28;20053;-77
2022/02/03 16:58:04;;;;;;;36.00;18.38;;;;;;;5.90;58.25;100028.53;5043285;28;20694;-77
2022/02/03 17:00:31;;;;;;;30.83;16.63;;;;;;;5.89;58.17;100032.09;5042114;28;20063;-82
2022/02/03 17:02:58;;;;;;;33.50;19.88;;;;;;;5.85;58.41;100024.47;5043407;28;20049;-75
2022/02/03 17:05:26;;;;;;;31.70;17.00;;;;;;;5.82;58.40;100029.91;5049827;28;20053;-81
2022/02/03 17:07:53;;;;;;;31.35;15.85;;;;;;;5.83;58.35;100028.97;5048547;28;20049;-72
2022/02/03 17:10:22;;;;;;;31.48;16.15;;;;;;;5.85;58.47;100027.09;5064798;28;20070;-73
2022/02/03 17:12:49;;;;;;;29.73;15.23;;;;;;;5.85;58.29;100025.34;5118468;28;20217;-76
2022/02/03 17:15:20;;;;;;;27.70;16.45;;;;;;;5.85;58.29;100027.97;5119982;28;20058;-79
2022/02/03 17:17:50;;;;;;;35.88;19.83;;;;;;;5.85;58.25;100020.09;5121503;27;20070;-73
2022/02/03 17:20:19;;;;;;;35.17;18.38;;;;;;;5.81;58.29;100023.81;5119435;28;20036;-75
2022/02/03 17:22:50;;;;;;;38.95;17.80;;;;;;;5.82;58.28;100022.06;5120813;28;20051;-83
2022/02/03 17:25:25;;;;;;;31.60;19.15;;;;;;;5.82;58.38;100016.81;5112145;28;20039;-78
2022/02/03 17:27:59;;;;;;;37.65;18.17;;;;;;;5.83;58.42;100014.09;5110733;28;20495;-80
2022/02/03 17:30:32;;;;;;;41.42;18.90;;;;;;;5.84;58.45;100010.53;5110469;28;20078;-72
2022/02/03 18:09:37;;;;;;;32.25;16.15;;;;;;;5.45;58.86;99987.41;5019249;28;20048;-77
2022/02/03 18:32:01;;;;;;;30.48;16.45;;;;;;;5.42;59.08;99954.41;5046042;28;20059;-72
2022/02/03 18:35:05;;;;;;;34.65;17.92;;;;;;;5.42;58.88;99959.63;5048812;28;20048;-78
2022/02/03 18:37:42;;;;;;;31.65;16.75;;;;;;;5.47;58.57;99961.97;5051952;28;20052;-79
2022/02/03 18:51:25;;;;;;;36.75;15.77;;;;;;;5.42;59.05;99943.06;5051705;28;20092;-73
2022/02/03 18:54:11;;;;;;;37.65;16.83;;;;;;;5.39;59.04;99941.47;5046905;28;20115;-75
2022/02/03 18:56:48;;;;;;;29.88;14.40;;;;;;;5.40;59.09;99937.06;5060547;28;20101;-83
2022/02/03 18:59:35;;;;;;;38.08;17.33;;;;;;;5.39;59.21;99936.22;5096675;28;20079;-76
2022/02/03 19:02:43;;;;;;;27.70;15.85;;;;;;;5.41;58.90;99928.28;5101411;28;20048;-78
2022/02/03 19:27:47;;;;;;;39.38;18.33;;;;;;;5.58;58.79;99916.84;4972254;28;20103;-78
2022/02/03 20:03:39;;;;;;;24.77;14.02;;;;;;;5.51;58.43;99891.00;5122338;28;20043;-75
2022/02/03 20:06:32;;;;;;;32.90;14.75;;;;;;;5.50;58.44;99889.31;5118743;28;20111;-75
2022/02/03 20:09:08;;;;;;;24.10;14.60;;;;;;;5.48;58.41;99890.34;5106514;28;20051;-70
2022/02/03 20:11:37;;;;;;;;;;;;;;;5.69;58.17;99880.38;5109852;28;20100;-75
2022/02/03 20:14:12;;;;;;;24.92;13.25;;;;;;;5.47;58.28;99886.84;5114763;27;20356;-73
2022/02/03 20:16:39;;;;;;;28.98;15.07;;;;;;;5.41;58.39;99889.84;5111218;28;20047;-70
2022/02/03 20:19:07;;;;;;;28.88;13.48;;;;;;;5.38;58.37;99883.94;5104365;28;20707;-74
2022/02/03 20:21:38;;;;;;;30.17;14.48;;;;;;;5.38;58.49;99886.53;5109268;28;20070;-71
2022/02/03 20:24:07;;;;;;;35.97;15.73;;;;;;;5.39;58.47;99880.41;5109097;28;20513;-77
2022/02/03 20:26:43;;;;;;;30.98;14.23;;;;;;;5.36;58.33;99873.53;5108849;28;20047;-75
2022/02/03 20:29:12;;;;;;;34.17;15.10;;;;;;;5.38;58.46;99873.44;5109449;28;20063;-72